createdAt,value
2016-10-20T00:00:22.545Z,0
2016-10-20T00:01:22.237Z,0
2016-10-20T00:02:22.566Z,0
2016-10-20T00:03:22.368Z,0
2016-10-20T00:04:22.294Z,0
2016-10-20T00:05:22.349Z,0
2016-10-20T00:06:22.015Z,0
2016-10-20T00:07:22.991Z,0
2016-10-20T00:08:22.052Z,0
2016-10-20T00:09:22.393Z,0
2016-10-20T00:10:22.402Z,0
2016-10-20T00:11:22.420Z,0
2016-10-20T00:12:22.127Z,0
2016-10-20T00:13:22.462Z,0
2016-10-20T00:14:22.163Z,0
2016-10-20T00:15:22.504Z,0
2016-10-20T00:16:22.203Z,0
2016-10-20T00:17:23.166Z,0
2016-10-20T00:18:22.583Z,0
2016-10-20T00:19:22.257Z,0
2016-10-20T00:20:22.910Z,0
2016-10-20T00:21:22.292Z,0
2016-10-20T00:22:22.326Z,0
2016-10-20T00:23:22.682Z,0
2016-10-20T00:24:22.986Z,0
2016-10-20T00:25:22.686Z,0
2016-10-20T00:26:22.702Z,0
2016-10-20T00:27:23.040Z,0
2016-10-20T00:28:23.053Z,0
2016-10-20T00:29:22.445Z,0
2016-10-20T00:30:22.786Z,0
2016-10-20T00:31:22.484Z,0
2016-10-20T00:32:22.817Z,0
2016-10-20T00:33:22.847Z,0
2016-10-20T00:34:22.858Z,0
2016-10-20T00:35:22.875Z,0
2016-10-20T00:36:22.633Z,0
2016-10-20T00:37:22.286Z,0
2016-10-20T00:38:22.621Z,0
2016-10-20T00:39:22.969Z,0
2016-10-20T00:40:22.969Z,0
2016-10-20T00:41:22.360Z,0
2016-10-20T00:42:23.320Z,0
2016-10-20T00:43:23.070Z,0
2016-10-20T00:44:23.045Z,0
2016-10-20T00:45:23.404Z,0
2016-10-20T00:46:23.125Z,0
2016-10-20T00:47:23.733Z,0
2016-10-20T00:48:22.832Z,0
2016-10-20T00:49:23.476Z,0
2016-10-20T00:50:23.158Z,0
2016-10-20T00:51:22.862Z,0
2016-10-20T00:52:23.827Z,0
2016-10-20T00:53:22.905Z,0
2016-10-20T00:54:22.921Z,0
2016-10-20T00:55:22.622Z,0
2016-10-20T00:56:22.642Z,0
2016-10-20T00:57:23.608Z,0
2016-10-20T00:58:23.659Z,0
2016-10-20T00:59:23.015Z,0
2016-10-20T01:00:23.980Z,0
2016-10-20T01:01:23.059Z,0
2016-10-20T01:02:22.777Z,0
2016-10-20T01:03:23.092Z,0
2016-10-20T01:04:23.112Z,0
2016-10-20T01:05:23.656Z,0
2016-10-20T01:06:23.185Z,0
2016-10-20T01:07:23.165Z,0
2016-10-20T01:08:22.864Z,0
2016-10-20T01:09:22.890Z,0
2016-10-20T01:10:23.541Z,0
2016-10-20T01:11:23.559Z,0
2016-10-20T01:12:23.293Z,0
2016-10-20T01:13:23.283Z,0
2016-10-20T01:14:23.665Z,0
2016-10-20T01:15:23.634Z,0
2016-10-20T01:16:23.650Z,0
2016-10-20T01:17:23.357Z,0
2016-10-20T01:18:23.085Z,0
2016-10-20T01:19:23.754Z,0
2016-10-20T01:20:23.728Z,0
2016-10-20T01:21:23.745Z,0
2016-10-20T01:22:24.110Z,0
2016-10-20T01:23:23.789Z,0
2016-10-20T01:24:23.486Z,0
2016-10-20T01:25:23.821Z,0
2016-10-20T01:26:23.524Z,0
2016-10-20T01:27:23.546Z,0
2016-10-20T01:28:24.232Z,0
2016-10-20T01:29:23.905Z,0
2016-10-20T01:30:24.555Z,0
2016-10-20T01:31:23.651Z,0
2016-10-20T01:32:23.955Z,0
2016-10-20T01:33:23.676Z,0
2016-10-20T01:34:24.318Z,0
2016-10-20T01:35:24.009Z,0
2016-10-20T01:36:23.722Z,0
2016-10-20T01:37:23.734Z,0
2016-10-20T01:38:23.757Z,0
2016-10-20T01:39:23.771Z,0
2016-10-20T01:40:24.427Z,0
2016-10-20T01:41:23.812Z,0
2016-10-20T01:42:24.141Z,0
2016-10-20T01:43:24.485Z,0
2016-10-20T01:44:24.816Z,0
2016-10-20T01:45:24.198Z,0
2016-10-20T01:46:24.278Z,0
2016-10-20T01:47:23.617Z,0
2016-10-20T01:48:24.274Z,0
2016-10-20T01:49:23.961Z,0
2016-10-20T01:50:24.299Z,0
2016-10-20T01:51:24.630Z,0
2016-10-20T01:52:23.707Z,0
2016-10-20T01:53:23.755Z,0
2016-10-20T01:54:24.371Z,0
2016-10-20T01:55:24.084Z,0
2016-10-20T01:56:23.817Z,0
2016-10-20T01:57:24.116Z,0
2016-10-20T01:58:24.445Z,0
2016-10-20T01:59:24.467Z,0
2016-10-20T02:00:25.127Z,0
2016-10-20T02:01:24.502Z,0
2016-10-20T02:02:24.521Z,0
2016-10-20T02:03:24.233Z,0
2016-10-20T02:04:24.247Z,0
2016-10-20T02:05:24.268Z,0
2016-10-20T02:06:24.283Z,0
2016-10-20T02:07:24.622Z,0
2016-10-20T02:08:24.012Z,0
2016-10-20T02:09:24.363Z,0
2016-10-20T02:10:24.678Z,0
2016-10-20T02:11:25.016Z,0
2016-10-20T02:12:25.053Z,0
2016-10-20T02:13:25.372Z,0
2016-10-20T02:14:24.749Z,0
2016-10-20T02:15:24.785Z,0
2016-10-20T02:16:24.479Z,0
2016-10-20T02:17:24.497Z,0
2016-10-20T02:18:24.508Z,0
2016-10-20T02:19:24.532Z,0
2016-10-20T02:20:24.865Z,0
2016-10-20T02:21:24.598Z,0
2016-10-20T02:22:24.646Z,0
2016-10-20T02:23:24.603Z,0
2016-10-20T02:24:25.254Z,0
2016-10-20T02:25:24.961Z,0
2016-10-20T02:26:24.981Z,0
2016-10-20T02:27:24.374Z,0
2016-10-20T02:28:25.018Z,0
2016-10-20T02:29:24.738Z,0
2016-10-20T02:30:25.389Z,0
2016-10-20T02:31:24.767Z,0
2016-10-20T02:32:25.091Z,0
2016-10-20T02:33:25.427Z,0
2016-10-20T02:34:24.503Z,0
2016-10-20T02:35:24.835Z,0
2016-10-20T02:36:25.165Z,0
2016-10-20T02:37:25.185Z,0
2016-10-20T02:38:25.206Z,0
2016-10-20T02:39:24.924Z,0
2016-10-20T02:40:24.924Z,0
2016-10-20T02:41:24.944Z,0
2016-10-20T02:42:24.981Z,0
2016-10-20T02:43:24.987Z,0
2016-10-20T02:44:25.020Z,0
2016-10-20T02:45:25.356Z,0
2016-10-20T02:46:25.048Z,0
2016-10-20T02:47:25.690Z,0
2016-10-20T02:48:26.024Z,0
2016-10-20T02:49:25.098Z,0
2016-10-20T02:50:25.432Z,0
2016-10-20T02:51:25.473Z,0
2016-10-20T02:52:25.469Z,0
2016-10-20T02:53:25.190Z,0
2016-10-20T02:54:25.541Z,0
2016-10-20T02:55:25.845Z,0
2016-10-20T02:56:25.237Z,0
2016-10-20T02:57:24.937Z,0
2016-10-20T02:58:25.584Z,0
2016-10-20T02:59:25.324Z,0
2016-10-20T03:00:25.674Z,0
2016-10-20T03:01:25.644Z,0
2016-10-20T03:02:25.656Z,0
2016-10-20T03:03:25.682Z,0
2016-10-20T03:04:25.382Z,0
2016-10-20T03:05:25.404Z,0
2016-10-20T03:06:25.108Z,0
2016-10-20T03:07:25.789Z,0
2016-10-20T03:08:25.479Z,0
2016-10-20T03:09:25.792Z,0
2016-10-20T03:10:25.533Z,0
2016-10-20T03:11:26.172Z,0
2016-10-20T03:12:25.884Z,0
2016-10-20T03:13:25.883Z,0
2016-10-20T03:14:26.206Z,0
2016-10-20T03:15:26.267Z,0
2016-10-20T03:16:25.962Z,0
2016-10-20T03:17:25.949Z,0
2016-10-20T03:18:25.995Z,0
2016-10-20T03:19:25.986Z,0
2016-10-20T03:20:26.024Z,0
2016-10-20T03:21:25.705Z,0
2016-10-20T03:22:26.356Z,0
2016-10-20T03:23:26.077Z,0
2016-10-20T03:24:25.768Z,0
2016-10-20T03:25:26.131Z,0
2016-10-20T03:26:26.155Z,0
2016-10-20T03:27:25.502Z,0
2016-10-20T03:28:26.151Z,0
2016-10-20T03:29:25.540Z,0
2016-10-20T03:30:26.549Z,0
2016-10-20T03:31:26.531Z,0
2016-10-20T03:32:25.607Z,0
2016-10-20T03:33:25.653Z,0
2016-10-20T03:34:25.949Z,0
2016-10-20T03:35:26.003Z,0
2016-10-20T03:36:26.320Z,0
2016-10-20T03:37:25.696Z,0
2016-10-20T03:38:26.687Z,0
2016-10-20T03:39:26.075Z,0
2016-10-20T03:40:26.093Z,0
2016-10-20T03:41:26.428Z,0
2016-10-20T03:42:26.454Z,0
2016-10-20T03:43:25.804Z,0
2016-10-20T03:44:26.147Z,0
2016-10-20T03:45:26.481Z,0
2016-10-20T03:46:26.804Z,0
2016-10-20T03:47:26.512Z,0
2016-10-20T03:48:26.539Z,0
2016-10-20T03:49:25.935Z,0
2016-10-20T03:50:26.250Z,0
2016-10-20T03:51:26.285Z,0
2016-10-20T03:52:26.921Z,0
2016-10-20T03:53:26.329Z,0
2016-10-20T03:54:26.963Z,0
2016-10-20T03:55:26.981Z,0
2016-10-20T03:56:26.694Z,0
2016-10-20T03:57:27.067Z,0
2016-10-20T03:58:27.078Z,0
2016-10-20T03:59:27.050Z,0
2016-10-20T04:00:26.771Z,0
2016-10-20T04:01:26.468Z,0
2016-10-20T04:02:26.511Z,0
2016-10-20T04:03:27.131Z,0
2016-10-20T04:04:26.854Z,0
2016-10-20T04:05:26.536Z,0
2016-10-20T04:06:27.500Z,0
2016-10-20T04:07:27.230Z,0
2016-10-20T04:08:27.348Z,0
2016-10-20T04:09:27.561Z,0
2016-10-20T04:10:27.467Z,0
2016-10-20T04:11:26.963Z,0
2016-10-20T04:12:26.990Z,0
2016-10-20T04:13:26.707Z,0
2016-10-20T04:14:27.056Z,0
2016-10-20T04:15:27.363Z,0
2016-10-20T04:16:26.746Z,0
2016-10-20T04:17:26.451Z,0
2016-10-20T04:18:27.416Z,0
2016-10-20T04:19:26.798Z,0
2016-10-20T04:20:27.143Z,0
2016-10-20T04:21:26.536Z,0
2016-10-20T04:22:26.537Z,0
2016-10-20T04:23:27.203Z,0
2016-10-20T04:24:26.578Z,0
2016-10-20T04:25:27.232Z,0
2016-10-20T04:26:27.252Z,0
2016-10-20T04:27:27.272Z,0
2016-10-20T04:28:27.610Z,0
2016-10-20T04:29:27.026Z,0
2016-10-20T04:30:27.083Z,0
2016-10-20T04:31:27.343Z,0
2016-10-20T04:32:27.393Z,0
2016-10-20T04:33:27.079Z,0
2016-10-20T04:34:27.093Z,0
2016-10-20T04:35:27.429Z,0
2016-10-20T04:36:27.438Z,0
2016-10-20T04:37:27.150Z,0
2016-10-20T04:38:27.169Z,0
2016-10-20T04:39:27.809Z,0
2016-10-20T04:40:27.511Z,0
2016-10-20T04:41:27.855Z,0
2016-10-20T04:42:28.238Z,0
2016-10-20T04:43:27.257Z,0
2016-10-20T04:44:27.592Z,0
2016-10-20T04:45:27.621Z,0
2016-10-20T04:46:27.389Z,0
2016-10-20T04:47:27.670Z,0
2016-10-20T04:48:27.674Z,0
2016-10-20T04:49:27.084Z,0
2016-10-20T04:50:27.744Z,0
2016-10-20T04:51:27.729Z,0
2016-10-20T04:52:27.841Z,0
2016-10-20T04:53:28.092Z,0
2016-10-20T04:54:28.098Z,0
2016-10-20T04:55:27.173Z,0
2016-10-20T04:56:28.143Z,0
2016-10-20T04:57:27.883Z,0
2016-10-20T04:58:27.548Z,0
2016-10-20T04:59:27.250Z,0
2016-10-20T05:00:28.548Z,0
2016-10-20T05:01:28.252Z,0
2016-10-20T05:02:27.952Z,0
2016-10-20T05:03:27.323Z,0
2016-10-20T05:04:27.977Z,0
2016-10-20T05:05:28.312Z,0
2016-10-20T05:06:27.696Z,0
2016-10-20T05:07:27.712Z,0
2016-10-20T05:08:28.108Z,0
2016-10-20T05:09:27.756Z,0
2016-10-20T05:10:28.411Z,0
2016-10-20T05:11:28.425Z,0
2016-10-20T05:12:27.498Z,0
2016-10-20T05:13:28.459Z,0
2016-10-20T05:14:28.168Z,0
2016-10-20T05:15:28.190Z,0
2016-10-20T05:16:28.218Z,0
2016-10-20T05:17:28.542Z,0
2016-10-20T05:18:28.246Z,0
2016-10-20T05:19:28.610Z,0
2016-10-20T05:20:28.329Z,0
2016-10-20T05:21:27.991Z,0
2016-10-20T05:22:28.323Z,0
2016-10-20T05:23:28.055Z,0
2016-10-20T05:24:28.677Z,0
2016-10-20T05:25:28.379Z,0
2016-10-20T05:26:28.083Z,0
2016-10-20T05:27:28.421Z,0
2016-10-20T05:28:28.123Z,0
2016-10-20T05:29:28.783Z,0
2016-10-20T05:30:28.795Z,0
2016-10-20T05:31:28.494Z,0
2016-10-20T05:32:28.513Z,0
2016-10-20T05:33:28.852Z,0
2016-10-20T05:34:28.568Z,0
2016-10-20T05:35:28.259Z,0
2016-10-20T05:36:28.587Z,0
2016-10-20T05:37:28.630Z,0
2016-10-20T05:38:28.315Z,0
2016-10-20T05:39:28.640Z,0
2016-10-20T05:40:28.981Z,0
2016-10-20T05:41:28.393Z,0
2016-10-20T05:42:28.701Z,0
2016-10-20T05:43:28.723Z,0
2016-10-20T05:44:29.055Z,0
2016-10-20T05:45:29.087Z,0
2016-10-20T05:46:28.780Z,0
2016-10-20T05:47:29.430Z,0
2016-10-20T05:48:28.812Z,0
2016-10-20T05:49:29.158Z,0
2016-10-20T05:50:28.857Z,0
2016-10-20T05:51:28.877Z,0
2016-10-20T05:52:28.897Z,0
2016-10-20T05:53:28.926Z,0
2016-10-20T05:54:28.619Z,0
2016-10-20T05:55:28.949Z,0
2016-10-20T05:56:28.679Z,0
2016-10-20T05:57:28.993Z,0
2016-10-20T05:58:28.689Z,0
2016-10-20T05:59:28.722Z,0
2016-10-20T06:00:29.078Z,0
2016-10-20T06:01:29.081Z,0
2016-10-20T06:02:29.609Z,0
2016-10-20T06:03:29.532Z,0
2016-10-20T06:04:29.159Z,0
2016-10-20T06:05:28.823Z,0
2016-10-20T06:06:29.480Z,0
2016-10-20T06:07:28.548Z,0
2016-10-20T06:08:29.509Z,0
2016-10-20T06:09:29.221Z,0
2016-10-20T06:10:29.592Z,0
2016-10-20T06:11:29.247Z,0
2016-10-20T06:12:29.962Z,0
2016-10-20T06:13:28.985Z,0
2016-10-20T06:14:29.321Z,0
2016-10-20T06:16:29.030Z,0
2016-10-20T06:17:29.048Z,0
2016-10-20T06:18:29.090Z,0
2016-10-20T06:19:29.411Z,0
2016-10-20T06:20:29.413Z,0
2016-10-20T06:21:29.763Z,0
2016-10-20T06:22:29.140Z,0
2016-10-20T06:23:29.153Z,0
2016-10-20T06:24:29.214Z,0
2016-10-20T06:25:29.209Z,0
2016-10-20T06:26:29.861Z,0
2016-10-20T06:27:29.546Z,0
2016-10-20T06:28:29.567Z,0
2016-10-20T06:29:29.904Z,0
2016-10-20T06:30:29.282Z,0
2016-10-20T06:31:29.632Z,0
2016-10-20T06:32:29.646Z,0
2016-10-20T06:33:29.371Z,0
2016-10-20T06:34:30.320Z,0
2016-10-20T06:35:29.707Z,0
2016-10-20T06:36:29.081Z,0
2016-10-20T06:37:30.050Z,0
2016-10-20T06:38:30.387Z,0
2016-10-20T06:39:29.777Z,0
2016-10-20T06:40:29.495Z,0
2016-10-20T06:41:29.195Z,0
2016-10-20T06:42:29.508Z,0
2016-10-20T06:43:30.162Z,0
2016-10-20T06:44:29.557Z,0
2016-10-20T06:45:30.519Z,0
2016-10-20T06:46:29.594Z,0
2016-10-20T06:47:30.243Z,0
2016-10-20T06:48:29.653Z,0
2016-10-20T06:49:29.669Z,0
2016-10-20T06:50:29.665Z,0
2016-10-20T06:51:29.687Z,0
2016-10-20T06:52:29.699Z,0
2016-10-20T06:53:29.738Z,0
2016-10-20T06:54:30.059Z,0
2016-10-20T06:55:30.083Z,0
2016-10-20T06:56:29.777Z,0
2016-10-20T06:57:30.435Z,0
2016-10-20T06:58:29.819Z,0
2016-10-20T06:59:29.517Z,0
2016-10-20T07:00:29.537Z,0
2016-10-20T07:01:30.187Z,0
2016-10-20T07:02:30.203Z,0
2016-10-20T07:03:30.220Z,0
2016-10-20T07:04:30.559Z,0
2016-10-20T07:05:29.649Z,0
2016-10-20T07:06:30.286Z,0
2016-10-20T07:07:30.634Z,0
2016-10-20T07:08:30.311Z,0
2016-10-20T07:09:30.338Z,0
2016-10-20T07:10:30.050Z,0
2016-10-20T07:11:29.760Z,0
2016-10-20T07:12:30.601Z,0
2016-10-20T07:13:30.739Z,0
2016-10-20T07:14:29.831Z,0
2016-10-20T07:15:29.833Z,0
2016-10-20T07:16:30.474Z,0
2016-10-20T07:17:30.806Z,0
2016-10-20T07:18:30.196Z,0
2016-10-20T07:19:30.841Z,0
2016-10-20T07:20:30.229Z,0
2016-10-20T07:21:30.570Z,0
2016-10-20T07:22:30.295Z,0
2016-10-20T07:23:30.281Z,0
2016-10-20T07:24:30.634Z,0
2016-10-20T07:25:30.692Z,0
2016-10-20T07:26:30.967Z,0
2016-10-20T07:27:31.306Z,0
2016-10-20T07:28:30.383Z,0
2016-10-20T07:29:30.132Z,0
2016-10-20T07:30:30.730Z,0
2016-10-20T07:31:31.066Z,0
2016-10-20T07:32:30.145Z,0
2016-10-20T07:33:31.100Z,0
2016-10-20T07:34:31.125Z,0
2016-10-20T07:35:30.209Z,0
2016-10-20T07:36:30.529Z,0
2016-10-20T07:37:30.866Z,0
2016-10-20T07:38:30.882Z,0
2016-10-20T07:39:30.903Z,0
2016-10-20T07:40:30.599Z,0
2016-10-20T07:41:30.937Z,0
2016-10-20T07:42:30.644Z,0
2016-10-20T07:43:31.290Z,0
2016-10-20T07:44:31.640Z,0
2016-10-20T07:45:31.334Z,0
2016-10-20T07:46:30.961Z,0
2016-10-20T07:47:31.056Z,0
2016-10-20T07:48:31.073Z,0
2016-10-20T07:49:30.772Z,0
2016-10-20T07:50:31.163Z,0
2016-10-20T07:51:31.129Z,0
2016-10-20T07:52:31.156Z,0
2016-10-20T07:53:31.489Z,5
2016-10-20T07:54:30.881Z,5
2016-10-20T07:55:30.893Z,5
2016-10-20T07:56:31.543Z,5
2016-10-20T07:57:31.237Z,5
2016-10-20T07:58:31.584Z,5
2016-10-20T07:59:31.318Z,5
2016-10-20T08:00:31.296Z,5
2016-10-20T08:01:31.636Z,5
2016-10-20T08:02:31.023Z,5
2016-10-20T08:03:31.358Z,5
2016-10-20T08:04:31.693Z,5
2016-10-20T08:05:31.101Z,5
2016-10-20T08:06:31.101Z,5
2016-10-20T08:07:31.434Z,5
2016-10-20T08:08:31.474Z,5
2016-10-20T08:09:31.168Z,5
2016-10-20T08:10:32.121Z,5
2016-10-20T08:11:31.824Z,5
2016-10-20T08:12:32.161Z,5
2016-10-20T08:13:31.567Z,5
2016-10-20T08:14:31.249Z,5
2016-10-20T08:15:31.899Z,5
2016-10-20T08:16:31.957Z,5
2016-10-20T08:17:31.657Z,5
2016-10-20T08:18:31.958Z,5
2016-10-20T08:19:31.664Z,5
2016-10-20T08:20:31.384Z,5
2016-10-20T08:21:31.422Z,5
2016-10-20T08:22:31.721Z,5
2016-10-20T08:23:31.779Z,5
2016-10-20T08:24:31.453Z,5
2016-10-20T08:25:31.464Z,5
2016-10-20T08:26:32.114Z,5
2016-10-20T08:27:31.501Z,5
2016-10-20T08:28:31.536Z,5
2016-10-20T08:29:31.578Z,5
2016-10-20T08:30:31.572Z,5
2016-10-20T08:31:31.913Z,5
2016-10-20T08:32:31.602Z,5
2016-10-20T08:33:31.966Z,5
2016-10-20T08:34:31.376Z,5
2016-10-20T08:35:31.660Z,5
2016-10-20T08:36:31.357Z,5
2016-10-20T08:37:32.377Z,10
2016-10-20T08:38:31.402Z,10
2016-10-20T08:39:31.735Z,10
2016-10-20T08:40:32.731Z,10
2016-10-20T08:41:32.089Z,10
2016-10-20T08:42:32.105Z,10
2016-10-20T08:43:32.166Z,15
2016-10-20T08:44:32.150Z,15
2016-10-20T08:45:31.859Z,25
2016-10-20T08:46:32.506Z,15
2016-10-20T08:47:31.571Z,15
2016-10-20T08:48:31.911Z,10
2016-10-20T08:49:31.933Z,10
2016-10-20T08:50:31.957Z,10
2016-10-20T08:51:31.971Z,10
2016-10-20T08:52:32.294Z,10
2016-10-20T08:53:32.073Z,10
2016-10-20T08:54:32.373Z,15
2016-10-20T08:55:32.074Z,15
2016-10-20T08:56:32.381Z,15
2016-10-20T08:57:32.737Z,15
2016-10-20T08:58:32.154Z,15
2016-10-20T08:59:32.111Z,15
2016-10-20T09:00:32.145Z,15
2016-10-20T09:01:32.473Z,20
2016-10-20T09:02:32.498Z,15
2016-10-20T09:03:32.831Z,15
2016-10-20T09:04:32.221Z,15
2016-10-20T09:05:32.551Z,20
2016-10-20T09:06:32.574Z,20
2016-10-20T09:07:31.961Z,20
2016-10-20T09:08:32.933Z,20
2016-10-20T09:09:32.957Z,25
2016-10-20T09:10:32.964Z,60
2016-10-20T09:11:32.666Z,60
2016-10-20T09:12:32.700Z,55
2016-10-20T09:13:32.710Z,55
2016-10-20T09:14:33.043Z,50
2016-10-20T09:15:33.433Z,30
2016-10-20T09:16:32.778Z,60
2016-10-20T09:17:33.110Z,60
2016-10-20T09:18:32.515Z,40
2016-10-20T09:19:32.888Z,85
2016-10-20T09:20:32.541Z,110
2016-10-20T09:21:32.876Z,135
2016-10-20T09:22:32.257Z,155
2016-10-20T09:23:32.955Z,105
2016-10-20T09:24:32.619Z,65
2016-10-20T09:25:32.994Z,55
2016-10-20T09:26:32.358Z,55
2016-10-20T09:27:32.689Z,55
2016-10-20T09:28:32.700Z,55
2016-10-20T09:29:33.361Z,55
2016-10-20T09:30:33.058Z,50
2016-10-20T09:31:33.434Z,60
2016-10-20T09:32:32.789Z,50
2016-10-20T09:33:33.126Z,45
2016-10-20T09:34:32.838Z,50
2016-10-20T09:35:33.813Z,55
2016-10-20T09:36:33.187Z,45
2016-10-20T09:37:33.560Z,35
2016-10-20T09:38:33.226Z,60
2016-10-20T09:39:32.943Z,25
2016-10-20T09:40:32.657Z,20
2016-10-20T09:41:32.978Z,20
2016-10-20T09:42:33.317Z,20
2016-10-20T09:43:32.706Z,20
2016-10-20T09:44:33.679Z,20
2016-10-20T09:45:33.734Z,20
2016-10-20T09:46:32.776Z,20
2016-10-20T09:47:33.434Z,20
2016-10-20T09:48:33.442Z,20
2016-10-20T09:49:33.157Z,20
2016-10-20T09:50:34.121Z,20
2016-10-20T09:51:33.849Z,20
2016-10-20T09:52:33.550Z,20
2016-10-20T09:53:33.276Z,20
2016-10-20T09:54:32.966Z,20
2016-10-20T09:55:33.601Z,20
2016-10-20T09:56:33.939Z,20
2016-10-20T09:57:33.692Z,20
2016-10-20T09:58:33.675Z,20
2016-10-20T09:59:33.382Z,20
2016-10-20T10:00:33.386Z,15
2016-10-20T10:01:33.143Z,15
2016-10-20T10:02:34.072Z,15
2016-10-20T10:03:33.848Z,15
2016-10-20T10:04:33.475Z,15
2016-10-20T10:05:33.817Z,15
2016-10-20T10:06:33.836Z,10
2016-10-20T10:07:33.853Z,10
2016-10-20T10:08:33.882Z,10
2016-10-20T10:09:34.218Z,10
2016-10-20T10:10:33.927Z,10
2016-10-20T10:11:33.948Z,10
2016-10-20T10:12:33.986Z,10
2016-10-20T10:13:34.020Z,10
2016-10-20T10:14:34.038Z,10
2016-10-20T10:15:34.022Z,10
2016-10-20T10:16:33.748Z,15
2016-10-20T10:17:34.715Z,15
2016-10-20T10:18:34.716Z,10
2016-10-20T10:19:34.107Z,10
2016-10-20T10:20:48.393Z,10
2016-10-20T10:21:33.837Z,10
2016-10-20T10:22:33.869Z,10
2016-10-20T10:23:33.926Z,10
2016-10-20T10:24:34.866Z,15
2016-10-20T10:25:34.254Z,15
2016-10-20T10:26:34.292Z,15
2016-10-20T10:27:34.279Z,15
2016-10-20T10:28:34.296Z,15
2016-10-20T10:29:34.010Z,10
2016-10-20T10:30:34.341Z,10
2016-10-20T10:31:34.363Z,10
2016-10-20T10:32:33.755Z,10
2016-10-20T10:33:34.405Z,10
2016-10-20T10:34:34.110Z,15
2016-10-20T10:35:34.779Z,15
2016-10-20T10:36:34.475Z,15
2016-10-20T10:37:34.808Z,15
2016-10-20T10:38:34.511Z,15
2016-10-20T10:39:34.530Z,15
2016-10-20T10:40:34.868Z,20
2016-10-20T10:41:34.251Z,20
2016-10-20T10:42:34.598Z,20
2016-10-20T10:43:34.608Z,20
2016-10-20T10:44:35.264Z,20
2016-10-20T10:45:35.284Z,20
2016-10-20T10:46:34.672Z,20
2016-10-20T10:47:34.404Z,20
2016-10-20T10:48:34.097Z,20
2016-10-20T10:49:34.780Z,20
2016-10-20T10:50:34.765Z,20
2016-10-20T10:51:34.801Z,20
2016-10-20T10:52:35.126Z,20
2016-10-20T10:53:35.136Z,20
2016-10-20T10:54:34.529Z,20
2016-10-20T10:55:34.862Z,20
2016-10-20T10:56:34.883Z,20
2016-10-20T10:57:35.212Z,15
2016-10-20T10:58:35.243Z,15
2016-10-20T10:59:35.290Z,15
2016-10-20T11:00:34.653Z,15
2016-10-20T11:01:34.670Z,20
2016-10-20T11:02:35.002Z,20
2016-10-20T11:03:35.364Z,15
2016-10-20T11:04:35.051Z,15
2016-10-20T11:05:35.391Z,15
2016-10-20T11:06:35.131Z,15
2016-10-20T11:07:35.118Z,10
2016-10-20T11:08:35.138Z,10
2016-10-20T11:09:35.162Z,10
2016-10-20T11:10:35.207Z,10
2016-10-20T11:11:35.830Z,5
2016-10-20T11:12:35.534Z,5
2016-10-20T11:13:34.924Z,5
2016-10-20T11:14:35.570Z,5
2016-10-20T11:15:35.588Z,10
2016-10-20T11:16:35.299Z,10
2016-10-20T11:17:35.657Z,10
2016-10-20T11:18:35.362Z,10
2016-10-20T11:19:35.363Z,15
2016-10-20T11:20:35.427Z,15
2016-10-20T11:21:35.088Z,15
2016-10-20T11:22:35.430Z,15
2016-10-20T11:23:35.461Z,10
2016-10-20T11:24:35.784Z,15
2016-10-20T11:25:35.825Z,15
2016-10-20T11:26:35.525Z,15
2016-10-20T11:27:35.222Z,15
2016-10-20T11:28:34.969Z,25
2016-10-20T11:29:35.256Z,20
2016-10-20T11:30:35.591Z,20
2016-10-20T11:31:34.990Z,20
2016-10-20T11:32:35.636Z,30
2016-10-20T11:33:36.296Z,20
2016-10-20T11:34:35.699Z,15
2016-10-20T11:35:35.393Z,20
2016-10-20T11:36:35.403Z,40
2016-10-20T11:37:35.746Z,15
2016-10-20T11:38:35.772Z,15
2016-10-20T11:39:35.474Z,15
2016-10-20T11:40:36.171Z,15
2016-10-20T11:41:35.831Z,15
2016-10-20T11:42:35.866Z,25
2016-10-20T11:43:35.877Z,25
2016-10-20T11:44:35.909Z,45
2016-10-20T11:45:35.292Z,45
2016-10-20T11:46:35.616Z,40
2016-10-20T11:47:35.350Z,40
2016-10-20T11:48:35.975Z,40
2016-10-20T11:49:35.695Z,15
2016-10-20T11:50:36.331Z,10
2016-10-20T11:51:35.405Z,10
2016-10-20T11:52:35.794Z,10
2016-10-20T11:53:35.769Z,10
2016-10-20T11:54:36.435Z,10
2016-10-20T11:55:35.819Z,10
2016-10-20T11:56:36.145Z,10
2016-10-20T11:57:35.541Z,10
2016-10-20T11:58:36.200Z,10
2016-10-20T11:59:35.908Z,10
2016-10-20T12:00:36.240Z,5
2016-10-20T12:01:36.572Z,5
2016-10-20T12:02:36.281Z,5
2016-10-20T12:03:35.993Z,10
2016-10-20T12:04:36.638Z,10
2016-10-20T12:05:35.852Z,10
2016-10-20T12:06:36.067Z,10
2016-10-20T12:07:36.077Z,10
2016-10-20T12:08:36.408Z,40
2016-10-20T12:09:35.801Z,35
2016-10-20T12:10:36.457Z,15
2016-10-20T12:11:35.837Z,40
2016-10-20T12:12:36.524Z,15
2016-10-20T12:13:36.204Z,15
2016-10-20T12:14:36.541Z,10
2016-10-20T12:15:36.248Z,10
2016-10-20T12:16:36.270Z,10
2016-10-20T12:17:36.286Z,10
2016-10-20T12:18:36.617Z,10
2016-10-20T12:19:36.335Z,5
2016-10-20T12:20:36.396Z,5
2016-10-20T12:21:36.375Z,10
2016-10-20T12:22:36.715Z,10
2016-10-20T12:23:36.816Z,10
2016-10-20T12:24:36.270Z,15
2016-10-20T12:25:36.827Z,35
2016-10-20T12:26:37.301Z,35
2016-10-20T12:27:37.174Z,15
2016-10-20T12:28:36.868Z,15
2016-10-20T12:29:36.602Z,35
2016-10-20T12:30:36.697Z,35
2016-10-20T12:31:37.225Z,15
2016-10-20T12:32:37.008Z,20
2016-10-20T12:33:36.338Z,35
2016-10-20T12:34:36.974Z,35
2016-10-20T12:35:36.699Z,35
2016-10-20T12:36:37.068Z,35
2016-10-20T12:37:36.487Z,30
2016-10-20T12:38:37.593Z,30
2016-10-20T12:39:37.469Z,30
2016-10-20T12:40:37.202Z,30
2016-10-20T12:41:37.629Z,30
2016-10-20T12:42:37.288Z,30
2016-10-20T12:43:36.929Z,30
2016-10-20T12:44:36.879Z,30
2016-10-20T12:45:37.537Z,30
2016-10-20T12:46:37.277Z,30
2016-10-20T12:47:37.595Z,30
2016-10-20T12:48:37.292Z,30
2016-10-20T12:49:37.313Z,30
2016-10-20T12:50:37.644Z,30
2016-10-20T12:51:37.370Z,30
2016-10-20T12:52:37.063Z,10
2016-10-20T12:53:37.719Z,20
2016-10-20T12:54:37.417Z,10
2016-10-20T12:55:37.146Z,5
2016-10-20T12:56:37.218Z,5
2016-10-20T12:57:37.788Z,5
2016-10-20T12:58:37.533Z,5
2016-10-20T12:59:37.219Z,15
2016-10-20T13:00:37.548Z,10
2016-10-20T13:01:37.714Z,10
2016-10-20T13:02:36.957Z,10
2016-10-20T13:03:37.309Z,10
2016-10-20T13:04:37.632Z,15
2016-10-20T13:05:37.983Z,30
2016-10-20T13:06:37.058Z,10
2016-10-20T13:07:37.393Z,15
2016-10-20T13:08:38.039Z,15
2016-10-20T13:09:38.068Z,10
2016-10-20T13:10:37.797Z,10
2016-10-20T13:11:37.496Z,10
2016-10-20T13:12:37.510Z,10
2016-10-20T13:13:37.536Z,10
2016-10-20T13:14:37.557Z,10
2016-10-20T13:15:38.211Z,5
2016-10-20T13:16:37.932Z,5
2016-10-20T13:17:37.629Z,5
2016-10-20T13:18:37.961Z,5
2016-10-20T13:19:37.665Z,10
2016-10-20T13:20:38.015Z,20
2016-10-20T13:21:37.710Z,10
2016-10-20T13:22:38.050Z,5
2016-10-20T13:23:37.451Z,5
2016-10-20T13:24:38.411Z,5
2016-10-20T13:25:37.783Z,5
2016-10-20T13:26:38.437Z,10
2016-10-20T13:27:38.800Z,25
2016-10-20T13:28:38.168Z,20
2016-10-20T13:29:38.197Z,10
2016-10-20T13:30:37.910Z,25
2016-10-20T13:31:37.937Z,15
2016-10-20T13:32:37.951Z,5
2016-10-20T13:33:38.288Z,10
2016-10-20T13:34:38.305Z,25
2016-10-20T13:35:38.319Z,25
2016-10-20T13:36:38.683Z,25
2016-10-20T13:37:38.058Z,25
2016-10-20T13:38:39.015Z,25
2016-10-20T13:39:38.086Z,20
2016-10-20T13:40:37.797Z,5
2016-10-20T13:41:38.145Z,5
2016-10-20T13:42:38.154Z,5
2016-10-20T13:43:38.809Z,5
2016-10-20T13:44:38.514Z,20
2016-10-20T13:45:39.167Z,20
2016-10-20T13:46:37.954Z,20
2016-10-20T13:47:38.908Z,20
2016-10-20T13:48:37.982Z,20
2016-10-20T13:49:38.318Z,20
2016-10-20T13:50:39.292Z,20
2016-10-20T13:51:38.979Z,20
2016-10-20T13:52:38.690Z,20
2016-10-20T13:53:39.027Z,15
2016-10-20T13:54:38.422Z,20
2016-10-20T13:55:38.445Z,20
2016-10-20T13:56:38.467Z,20
2016-10-20T13:57:38.519Z,15
2016-10-20T13:58:38.509Z,20
2016-10-20T13:59:39.166Z,20
2016-10-20T14:00:38.893Z,20
2016-10-20T14:01:39.212Z,20
2016-10-20T14:02:38.599Z,20
2016-10-20T14:03:38.932Z,20
2016-10-20T14:04:38.954Z,20
2016-10-20T14:05:38.664Z,20
2016-10-20T14:06:39.002Z,15
2016-10-20T14:07:39.400Z,20
2016-10-20T14:08:39.382Z,15
2016-10-20T14:09:39.078Z,15
2016-10-20T14:10:39.433Z,15
2016-10-20T14:11:39.789Z,15
2016-10-20T14:12:39.242Z,15
2016-10-20T14:13:39.475Z,15
2016-10-20T14:14:39.185Z,15
2016-10-20T14:15:38.992Z,5
2016-10-20T14:16:38.910Z,10
2016-10-20T14:17:39.624Z,15
2016-10-20T14:18:38.959Z,15
2016-10-20T14:19:39.292Z,15
2016-10-20T14:20:39.675Z,15
2016-10-20T14:21:39.094Z,15
2016-10-20T14:22:39.683Z,15
2016-10-20T14:23:39.384Z,10
2016-10-20T14:24:39.812Z,10
2016-10-20T14:25:39.750Z,15
2016-10-20T14:26:39.803Z,15
2016-10-20T14:27:39.210Z,15
2016-10-20T14:28:39.531Z,15
2016-10-20T14:29:40.159Z,15
2016-10-20T14:30:39.867Z,15
2016-10-20T14:31:39.570Z,15
2016-10-20T14:32:39.582Z,15
2016-10-20T14:33:39.692Z,15
2016-10-20T14:34:39.693Z,15
2016-10-20T14:35:39.022Z,15